sensor_id;sensor_type;location;lat;lon;timestamp;P1;durP1;ratioP1;P2;durP2;ratioP2
64816;SDS011;69411;45.656;11.740;2023-09-12T00:01:30;19.85;;;14.18;;
64816;SDS011;69411;45.656;11.740;2023-09-12T00:04:02;17.25;;;13.48;;
64816;SDS011;69411;45.656;11.740;2023-09-12T00:06:28;19.52;;;13.73;;
64816;SDS011;69411;45.656;11.740;2023-09-12T00:08:56;18.80;;;14.90;;
64816;SDS011;69411;45.656;11.740;2023-09-12T00:11:24;17.02;;;13.27;;
64816;SDS011;69411;45.656;11.740;2023-09-12T00:13:51;19.30;;;13.02;;
64816;SDS011;69411;45.656;11.740;2023-09-12T00:16:27;14.68;;;12.57;;
64816;SDS011;69411;45.656;11.740;2023-09-12T00:18:53;21.00;;;14.25;;
64816;SDS011;69411;45.656;11.740;2023-09-12T00:21:19;18.55;;;13.93;;
64816;SDS011;69411;45.656;11.740;2023-09-12T00:23:44;19.52;;;14.20;;
64816;SDS011;69411;45.656;11.740;2023-09-12T00:26:11;19.20;;;15.02;;
64816;SDS011;69411;45.656;11.740;2023-09-12T00:28:42;18.65;;;14.57;;
64816;SDS011;69411;45.656;11.740;2023-09-12T00:31:14;19.00;;;14.13;;
64816;SDS011;69411;45.656;11.740;2023-09-12T00:33:43;17.70;;;13.20;;
64816;SDS011;69411;45.656;11.740;2023-09-12T00:36:10;17.55;;;13.48;;
64816;SDS011;69411;45.656;11.740;2023-09-12T00:38:36;17.30;;;12.57;;
64816;SDS011;69411;45.656;11.740;2023-09-12T00:41:03;14.60;;;11.57;;
64816;SDS011;69411;45.656;11.740;2023-09-12T00:43:29;17.60;;;13.32;;
64816;SDS011;69411;45.656;11.740;2023-09-12T00:46:00;18.92;;;15.52;;
64816;SDS011;69411;45.656;11.740;2023-09-12T00:48:26;17.52;;;13.75;;
64816;SDS011;69411;45.656;11.740;2023-09-12T00:50:52;20.33;;;14.20;;
64816;SDS011;69411;45.656;11.740;2023-09-12T00:53:19;19.80;;;14.90;;
64816;SDS011;69411;45.656;11.740;2023-09-12T00:55:48;17.35;;;13.63;;
64816;SDS011;69411;45.656;11.740;2023-09-12T00:58:19;16.27;;;12.73;;
64816;SDS011;69411;45.656;11.740;2023-09-12T01:00:47;14.88;;;11.57;;
64816;SDS011;69411;45.656;11.740;2023-09-12T01:03:24;16.42;;;12.43;;
64816;SDS011;69411;45.656;11.740;2023-09-12T01:05:53;17.92;;;13.35;;
64816;SDS011;69411;45.656;11.740;2023-09-12T01:08:23;15.05;;;11.30;;
64816;SDS011;69411;45.656;11.740;2023-09-12T01:10:53;14.95;;;11.05;;
64816;SDS011;69411;45.656;11.740;2023-09-12T01:13:23;15.35;;;11.60;;
64816;SDS011;69411;45.656;11.740;2023-09-12T01:15:56;18.60;;;13.15;;
64816;SDS011;69411;45.656;11.740;2023-09-12T01:18:23;18.25;;;12.00;;
64816;SDS011;69411;45.656;11.740;2023-09-12T01:21:10;15.10;;;12.13;;
64816;SDS011;69411;45.656;11.740;2023-09-12T01:29:24;14.05;;;11.02;;
64816;SDS011;69411;45.656;11.740;2023-09-12T01:31:53;14.68;;;11.02;;
64816;SDS011;69411;45.656;11.740;2023-09-12T01:34:23;14.40;;;10.98;;
64816;SDS011;69411;45.656;11.740;2023-09-12T01:36:51;16.55;;;11.20;;
64816;SDS011;69411;45.656;11.740;2023-09-12T01:39:17;15.30;;;11.32;;
64816;SDS011;69411;45.656;11.740;2023-09-12T01:41:43;17.65;;;11.38;;
64816;SDS011;69411;45.656;11.740;2023-09-12T01:44:13;17.40;;;11.07;;
64816;SDS011;69411;45.656;11.740;2023-09-12T01:46:41;13.43;;;10.70;;
64816;SDS011;69411;45.656;11.740;2023-09-12T01:49:08;13.60;;;10.25;;
64816;SDS011;69411;45.656;11.740;2023-09-12T01:51:35;14.60;;;11.07;;
64816;SDS011;69411;45.656;11.740;2023-09-12T01:54:03;14.85;;;11.60;;
64816;SDS011;69411;45.656;11.740;2023-09-12T01:56:29;17.50;;;12.77;;
64816;SDS011;69411;45.656;11.740;2023-09-12T01:58:56;14.82;;;11.15;;
64816;SDS011;69411;45.656;11.740;2023-09-12T02:01:30;13.45;;;10.23;;
64816;SDS011;69411;45.656;11.740;2023-09-12T02:03:57;13.98;;;9.57;;
64816;SDS011;69411;45.656;11.740;2023-09-12T02:06:28;15.85;;;11.10;;
64816;SDS011;69411;45.656;11.740;2023-09-12T02:08:54;15.13;;;11.13;;
64816;SDS011;69411;45.656;11.740;2023-09-12T02:11:21;14.60;;;10.88;;
64816;SDS011;69411;45.656;11.740;2023-09-12T02:13:52;17.42;;;13.60;;
64816;SDS011;69411;45.656;11.740;2023-09-12T02:16:22;15.98;;;12.05;;
64816;SDS011;69411;45.656;11.740;2023-09-12T02:18:54;20.77;;;13.65;;
64816;SDS011;69411;45.656;11.740;2023-09-12T02:21:20;15.52;;;11.60;;
64816;SDS011;69411;45.656;11.740;2023-09-12T02:23:46;15.55;;;11.60;;
64816;SDS011;69411;45.656;11.740;2023-09-12T02:26:12;14.57;;;11.38;;
64816;SDS011;69411;45.656;11.740;2023-09-12T02:28:38;16.13;;;12.43;;
64816;SDS011;69411;45.656;11.740;2023-09-12T02:31:09;15.52;;;11.95;;
64816;SDS011;69411;45.656;11.740;2023-09-12T02:33:37;16.30;;;11.70;;
64816;SDS011;69411;45.656;11.740;2023-09-12T02:36:06;22.45;;;12.82;;
64816;SDS011;69411;45.656;11.740;2023-09-12T02:38:32;15.90;;;12.02;;
64816;SDS011;69411;45.656;11.740;2023-09-12T02:40:58;16.17;;;12.43;;
64816;SDS011;69411;45.656;11.740;2023-09-12T02:43:24;16.40;;;12.93;;
64816;SDS011;69411;45.656;11.740;2023-09-12T02:45:50;14.75;;;11.98;;
64816;SDS011;69411;45.656;11.740;2023-09-12T02:48:16;16.05;;;12.15;;
64816;SDS011;69411;45.656;11.740;2023-09-12T02:50:45;17.98;;;13.05;;
64816;SDS011;69411;45.656;11.740;2023-09-12T02:53:11;20.80;;;13.32;;
64816;SDS011;69411;45.656;11.740;2023-09-12T02:55:41;18.65;;;12.77;;
64816;SDS011;69411;45.656;11.740;2023-09-12T02:58:09;17.75;;;12.68;;
64816;SDS011;69411;45.656;11.740;2023-09-12T03:00:39;16.58;;;12.40;;
64816;SDS011;69411;45.656;11.740;2023-09-12T03:03:08;17.75;;;14.15;;
64816;SDS011;69411;45.656;11.740;2023-09-12T03:05:36;16.33;;;12.75;;
64816;SDS011;69411;45.656;11.740;2023-09-12T03:08:02;18.38;;;13.23;;
64816;SDS011;69411;45.656;11.740;2023-09-12T03:10:29;17.75;;;14.55;;
64816;SDS011;69411;45.656;11.740;2023-09-12T03:12:55;16.60;;;12.02;;
64816;SDS011;69411;45.656;11.740;2023-09-12T03:15:21;17.50;;;12.25;;
64816;SDS011;69411;45.656;11.740;2023-09-12T03:17:47;17.73;;;13.25;;
64816;SDS011;69411;45.656;11.740;2023-09-12T03:20:13;14.38;;;11.32;;
64816;SDS011;69411;45.656;11.740;2023-09-12T03:22:39;18.00;;;13.07;;
64816;SDS011;69411;45.656;11.740;2023-09-12T03:25:06;14.70;;;11.20;;
64816;SDS011;69411;45.656;11.740;2023-09-12T03:30:11;17.40;;;11.27;;
64816;SDS011;69411;45.656;11.740;2023-09-12T03:32:38;14.95;;;11.00;;
64816;SDS011;69411;45.656;11.740;2023-09-12T03:35:04;16.88;;;12.15;;
64816;SDS011;69411;45.656;11.740;2023-09-12T03:37:30;17.10;;;12.02;;
64816;SDS011;69411;45.656;11.740;2023-09-12T03:39:57;21.38;;;12.90;;
64816;SDS011;69411;45.656;11.740;2023-09-12T03:42:33;16.98;;;13.27;;
64816;SDS011;69411;45.656;11.740;2023-09-12T03:44:59;15.85;;;10.93;;
64816;SDS011;69411;45.656;11.740;2023-09-12T03:47:29;15.23;;;11.48;;
64816;SDS011;69411;45.656;11.740;2023-09-12T03:50:00;15.73;;;11.77;;
64816;SDS011;69411;45.656;11.740;2023-09-12T03:52:29;17.35;;;11.65;;
64816;SDS011;69411;45.656;11.740;2023-09-12T03:55:02;14.88;;;11.60;;
64816;SDS011;69411;45.656;11.740;2023-09-12T03:57:28;15.88;;;10.95;;
64816;SDS011;69411;45.656;11.740;2023-09-12T03:59:55;14.05;;;11.02;;
64816;SDS011;69411;45.656;11.740;2023-09-12T04:02:25;16.08;;;13.27;;
64816;SDS011;69411;45.656;11.740;2023-09-12T04:04:51;15.30;;;11.38;;
64816;SDS011;69411;45.656;11.740;2023-09-12T04:07:20;15.77;;;11.63;;
64816;SDS011;69411;45.656;11.740;2023-09-12T04:09:46;17.75;;;12.93;;
64816;SDS011;69411;45.656;11.740;2023-09-12T04:12:14;15.40;;;11.65;;
64816;SDS011;69411;45.656;11.740;2023-09-12T04:14:42;14.70;;;10.55;;
64816;SDS011;69411;45.656;11.740;2023-09-12T04:17:08;12.65;;;10.05;;
64816;SDS011;69411;45.656;11.740;2023-09-12T04:19:35;14.85;;;10.60;;
64816;SDS011;69411;45.656;11.740;2023-09-12T04:22:01;12.60;;;9.95;;
64816;SDS011;69411;45.656;11.740;2023-09-12T04:24:30;15.43;;;10.70;;
64816;SDS011;69411;45.656;11.740;2023-09-12T04:26:56;15.40;;;11.80;;
64816;SDS011;69411;45.656;11.740;2023-09-12T04:29:24;17.20;;;12.60;;
64816;SDS011;69411;45.656;11.740;2023-09-12T04:31:51;14.80;;;10.82;;
64816;SDS011;69411;45.656;11.740;2023-09-12T04:34:25;14.82;;;11.15;;
64816;SDS011;69411;45.656;11.740;2023-09-12T04:36:54;14.23;;;11.05;;
64816;SDS011;69411;45.656;11.740;2023-09-12T04:39:21;15.15;;;10.88;;
64816;SDS011;69411;45.656;11.740;2023-09-12T04:41:49;16.17;;;11.13;;
64816;SDS011;69411;45.656;11.740;2023-09-12T04:44:15;16.83;;;11.82;;
64816;SDS011;69411;45.656;11.740;2023-09-12T04:46:42;15.32;;;11.07;;
64816;SDS011;69411;45.656;11.740;2023-09-12T04:49:10;15.13;;;11.82;;
64816;SDS011;69411;45.656;11.740;2023-09-12T04:51:36;14.60;;;11.15;;
64816;SDS011;69411;45.656;11.740;2023-09-12T04:54:04;15.50;;;11.35;;
64816;SDS011;69411;45.656;11.740;2023-09-12T04:56:30;14.80;;;10.07;;
64816;SDS011;69411;45.656;11.740;2023-09-12T04:58:56;17.20;;;12.18;;
64816;SDS011;69411;45.656;11.740;2023-09-12T05:01:25;15.60;;;11.70;;
64816;SDS011;69411;45.656;11.740;2023-09-12T05:03:53;15.27;;;11.57;;
64816;SDS011;69411;45.656;11.740;2023-09-12T05:06:19;14.38;;;10.18;;
64816;SDS011;69411;45.656;11.740;2023-09-12T05:08:45;14.57;;;11.30;;
64816;SDS011;69411;45.656;11.740;2023-09-12T05:11:11;15.20;;;10.75;;
64816;SDS011;69411;45.656;11.740;2023-09-12T05:13:38;15.52;;;10.77;;
64816;SDS011;69411;45.656;11.740;2023-09-12T05:16:04;14.55;;;11.40;;
64816;SDS011;69411;45.656;11.740;2023-09-12T05:18:32;14.82;;;11.40;;
64816;SDS011;69411;45.656;11.740;2023-09-12T05:20:58;17.25;;;11.75;;
64816;SDS011;69411;45.656;11.740;2023-09-12T05:23:24;16.13;;;11.77;;
64816;SDS011;69411;45.656;11.740;2023-09-12T05:25:51;15.90;;;11.35;;
64816;SDS011;69411;45.656;11.740;2023-09-12T05:28:18;17.05;;;11.35;;
64816;SDS011;69411;45.656;11.740;2023-09-12T05:30:47;17.40;;;11.77;;
64816;SDS011;69411;45.656;11.740;2023-09-12T05:33:16;19.13;;;11.73;;
64816;SDS011;69411;45.656;11.740;2023-09-12T05:35:42;15.27;;;11.40;;
64816;SDS011;69411;45.656;11.740;2023-09-12T05:38:10;15.77;;;11.35;;
64816;SDS011;69411;45.656;11.740;2023-09-12T05:40:38;15.18;;;11.25;;
64816;SDS011;69411;45.656;11.740;2023-09-12T05:43:04;15.77;;;11.13;;
64816;SDS011;69411;45.656;11.740;2023-09-12T05:45:31;14.40;;;10.52;;
64816;SDS011;69411;45.656;11.740;2023-09-12T05:47:58;12.15;;;10.10;;
64816;SDS011;69411;45.656;11.740;2023-09-12T05:50:24;15.35;;;11.50;;
64816;SDS011;69411;45.656;11.740;2023-09-12T05:52:50;15.75;;;11.55;;
64816;SDS011;69411;45.656;11.740;2023-09-12T05:55:17;14.65;;;10.40;;
64816;SDS011;69411;45.656;11.740;2023-09-12T05:57:43;14.35;;;10.55;;
64816;SDS011;69411;45.656;11.740;2023-09-12T06:00:09;16.20;;;11.70;;
64816;SDS011;69411;45.656;11.740;2023-09-12T06:02:39;15.32;;;11.48;;
64816;SDS011;69411;45.656;11.740;2023-09-12T06:05:07;15.77;;;11.60;;
64816;SDS011;69411;45.656;11.740;2023-09-12T06:07:34;17.30;;;13.20;;
64816;SDS011;69411;45.656;11.740;2023-09-12T06:10:01;14.98;;;11.70;;
64816;SDS011;69411;45.656;11.740;2023-09-12T06:12:27;16.88;;;12.38;;
64816;SDS011;69411;45.656;11.740;2023-09-12T06:14:53;19.35;;;12.00;;
64816;SDS011;69411;45.656;11.740;2023-09-12T06:17:21;15.85;;;11.55;;
64816;SDS011;69411;45.656;11.740;2023-09-12T06:19:48;15.57;;;11.02;;
64816;SDS011;69411;45.656;11.740;2023-09-12T06:22:17;15.25;;;11.25;;
64816;SDS011;69411;45.656;11.740;2023-09-12T06:24:43;21.65;;;12.63;;
64816;SDS011;69411;45.656;11.740;2023-09-12T06:27:10;20.27;;;13.35;;
64816;SDS011;69411;45.656;11.740;2023-09-12T06:29:44;21.15;;;14.07;;
64816;SDS011;69411;45.656;11.740;2023-09-12T06:32:14;26.55;;;15.45;;
64816;SDS011;69411;45.656;11.740;2023-09-12T06:34:42;25.45;;;15.18;;
64816;SDS011;69411;45.656;11.740;2023-09-12T06:37:08;17.45;;;12.15;;
64816;SDS011;69411;45.656;11.740;2023-09-12T06:39:36;21.58;;;14.38;;
64816;SDS011;69411;45.656;11.740;2023-09-12T06:42:03;20.48;;;12.57;;
64816;SDS011;69411;45.656;11.740;2023-09-12T06:44:30;18.60;;;13.65;;
64816;SDS011;69411;45.656;11.740;2023-09-12T06:46:58;18.60;;;13.25;;
64816;SDS011;69411;45.656;11.740;2023-09-12T06:49:24;21.98;;;13.35;;
64816;SDS011;69411;45.656;11.740;2023-09-12T06:51:51;17.50;;;12.70;;
64816;SDS011;69411;45.656;11.740;2023-09-12T06:54:17;20.10;;;12.30;;
64816;SDS011;69411;45.656;11.740;2023-09-12T06:56:43;21.92;;;14.05;;
64816;SDS011;69411;45.656;11.740;2023-09-12T06:59:09;16.63;;;11.48;;
64816;SDS011;69411;45.656;11.740;2023-09-12T07:01:35;18.48;;;12.13;;
64816;SDS011;69411;45.656;11.740;2023-09-12T07:04:01;17.27;;;12.07;;
64816;SDS011;69411;45.656;11.740;2023-09-12T07:06:28;17.27;;;11.10;;
64816;SDS011;69411;45.656;11.740;2023-09-12T07:08:54;14.60;;;10.20;;
64816;SDS011;69411;45.656;11.740;2023-09-12T07:11:20;16.08;;;11.88;;
64816;SDS011;69411;45.656;11.740;2023-09-12T07:13:47;12.98;;;10.65;;
64816;SDS011;69411;45.656;11.740;2023-09-12T07:16:15;15.20;;;10.85;;
64816;SDS011;69411;45.656;11.740;2023-09-12T07:18:41;15.75;;;10.93;;
64816;SDS011;69411;45.656;11.740;2023-09-12T07:21:09;14.02;;;10.25;;
64816;SDS011;69411;45.656;11.740;2023-09-12T07:23:39;16.02;;;11.50;;
64816;SDS011;69411;45.656;11.740;2023-09-12T07:26:12;14.80;;;10.38;;
64816;SDS011;69411;45.656;11.740;2023-09-12T07:28:39;14.88;;;10.55;;
64816;SDS011;69411;45.656;11.740;2023-09-12T07:31:04;13.10;;;9.82;;
64816;SDS011;69411;45.656;11.740;2023-09-12T07:33:30;14.88;;;10.77;;
64816;SDS011;69411;45.656;11.740;2023-09-12T07:36:03;14.55;;;9.93;;
64816;SDS011;69411;45.656;11.740;2023-09-12T07:38:30;14.25;;;10.40;;
64816;SDS011;69411;45.656;11.740;2023-09-12T07:40:58;14.93;;;9.88;;
64816;SDS011;69411;45.656;11.740;2023-09-12T07:43:30;14.82;;;10.55;;
64816;SDS011;69411;45.656;11.740;2023-09-12T07:45:57;17.38;;;11.85;;
64816;SDS011;69411;45.656;11.740;2023-09-12T07:48:23;16.45;;;10.38;;
64816;SDS011;69411;45.656;11.740;2023-09-12T07:50:51;14.57;;;10.55;;
64816;SDS011;69411;45.656;11.740;2023-09-12T07:53:18;14.30;;;9.77;;
64816;SDS011;69411;45.656;11.740;2023-09-12T07:55:44;12.68;;;10.02;;
64816;SDS011;69411;45.656;11.740;2023-09-12T07:58:13;13.23;;;10.73;;
64816;SDS011;69411;45.656;11.740;2023-09-12T08:00:39;15.18;;;11.07;;
64816;SDS011;69411;45.656;11.740;2023-09-12T08:03:05;13.98;;;10.02;;
64816;SDS011;69411;45.656;11.740;2023-09-12T08:05:31;13.40;;;9.70;;
64816;SDS011;69411;45.656;11.740;2023-09-12T08:07:57;12.90;;;9.43;;
64816;SDS011;69411;45.656;11.740;2023-09-12T08:10:26;14.38;;;9.98;;
64816;SDS011;69411;45.656;11.740;2023-09-12T08:12:52;14.63;;;9.70;;
64816;SDS011;69411;45.656;11.740;2023-09-12T08:15:19;12.95;;;9.80;;
64816;SDS011;69411;45.656;11.740;2023-09-12T08:17:45;12.00;;;9.45;;
64816;SDS011;69411;45.656;11.740;2023-09-12T08:20:11;12.93;;;9.13;;
64816;SDS011;69411;45.656;11.740;2023-09-12T08:22:37;13.75;;;10.93;;
64816;SDS011;69411;45.656;11.740;2023-09-12T08:25:03;16.48;;;12.43;;
64816;SDS011;69411;45.656;11.740;2023-09-12T08:27:30;14.38;;;9.93;;
64816;SDS011;69411;45.656;11.740;2023-09-12T08:29:55;12.77;;;9.68;;
64816;SDS011;69411;45.656;11.740;2023-09-12T08:32:27;12.82;;;9.05;;
64816;SDS011;69411;45.656;11.740;2023-09-12T08:34:54;12.93;;;9.50;;
64816;SDS011;69411;45.656;11.740;2023-09-12T08:37:20;13.95;;;10.95;;
64816;SDS011;69411;45.656;11.740;2023-09-12T08:39:46;13.15;;;10.20;;
64816;SDS011;69411;45.656;11.740;2023-09-12T08:42:13;13.43;;;9.52;;
64816;SDS011;69411;45.656;11.740;2023-09-12T08:44:43;13.52;;;11.00;;
64816;SDS011;69411;45.656;11.740;2023-09-12T08:47:09;13.80;;;11.07;;
64816;SDS011;69411;45.656;11.740;2023-09-12T08:49:37;12.98;;;9.43;;
64816;SDS011;69411;45.656;11.740;2023-09-12T08:52:07;14.20;;;9.73;;
64816;SDS011;69411;45.656;11.740;2023-09-12T08:54:34;12.75;;;10.10;;
64816;SDS011;69411;45.656;11.740;2023-09-12T08:57:03;16.88;;;10.90;;
64816;SDS011;69411;45.656;11.740;2023-09-12T08:59:33;14.95;;;10.63;;
64816;SDS011;69411;45.656;11.740;2023-09-12T09:02:00;13.07;;;9.80;;
64816;SDS011;69411;45.656;11.740;2023-09-12T09:04:28;16.75;;;10.63;;
64816;SDS011;69411;45.656;11.740;2023-09-12T09:06:56;13.98;;;10.52;;
64816;SDS011;69411;45.656;11.740;2023-09-12T09:09:24;14.93;;;10.93;;
64816;SDS011;69411;45.656;11.740;2023-09-12T09:11:52;18.25;;;12.70;;
64816;SDS011;69411;45.656;11.740;2023-09-12T09:14:18;17.73;;;12.50;;
64816;SDS011;69411;45.656;11.740;2023-09-12T09:16:46;18.70;;;13.18;;
64816;SDS011;69411;45.656;11.740;2023-09-12T09:19:14;18.33;;;13.60;;
64816;SDS011;69411;45.656;11.740;2023-09-12T09:21:41;18.77;;;13.52;;
64816;SDS011;69411;45.656;11.740;2023-09-12T09:24:08;21.25;;;14.88;;
64816;SDS011;69411;45.656;11.740;2023-09-12T09:29:10;20.10;;;14.60;;
64816;SDS011;69411;45.656;11.740;2023-09-12T09:31:44;19.35;;;13.57;;
64816;SDS011;69411;45.656;11.740;2023-09-12T09:34:12;19.80;;;15.07;;
64816;SDS011;69411;45.656;11.740;2023-09-12T09:36:48;17.65;;;12.55;;
64816;SDS011;69411;45.656;11.740;2023-09-12T09:39:18;17.02;;;13.02;;
64816;SDS011;69411;45.656;11.740;2023-09-12T09:41:49;18.13;;;11.77;;
64816;SDS011;69411;45.656;11.740;2023-09-12T09:44:16;17.13;;;11.73;;
64816;SDS011;69411;45.656;11.740;2023-09-12T09:46:43;17.17;;;11.70;;
64816;SDS011;69411;45.656;11.740;2023-09-12T09:49:10;17.65;;;13.10;;
64816;SDS011;69411;45.656;11.740;2023-09-12T09:51:43;15.82;;;11.55;;
64816;SDS011;69411;45.656;11.740;2023-09-12T09:54:11;15.32;;;11.20;;
64816;SDS011;69411;45.656;11.740;2023-09-12T09:56:48;17.15;;;12.40;;
64816;SDS011;69411;45.656;11.740;2023-09-12T09:59:15;16.02;;;11.38;;
64816;SDS011;69411;45.656;11.740;2023-09-12T10:01:44;17.02;;;10.60;;
64816;SDS011;69411;45.656;11.740;2023-09-12T10:04:11;13.93;;;10.15;;
64816;SDS011;69411;45.656;11.740;2023-09-12T10:06:38;14.82;;;11.63;;
64816;SDS011;69411;45.656;11.740;2023-09-12T10:09:09;16.98;;;10.60;;
64816;SDS011;69411;45.656;11.740;2023-09-12T10:11:41;13.57;;;9.95;;
64816;SDS011;69411;45.656;11.740;2023-09-12T10:14:09;14.40;;;9.93;;
64816;SDS011;69411;45.656;11.740;2023-09-12T10:16:45;15.52;;;10.77;;
64816;SDS011;69411;45.656;11.740;2023-09-12T10:19:25;12.52;;;9.70;;
64816;SDS011;69411;45.656;11.740;2023-09-12T10:24:49;14.00;;;9.77;;
64816;SDS011;69411;45.656;11.740;2023-09-12T10:27:18;12.68;;;9.15;;
64816;SDS011;69411;45.656;11.740;2023-09-12T10:29:51;11.63;;;8.70;;
64816;SDS011;69411;45.656;11.740;2023-09-12T10:32:19;14.57;;;10.38;;
64816;SDS011;69411;45.656;11.740;2023-09-12T10:34:46;13.60;;;10.68;;
64816;SDS011;69411;45.656;11.740;2023-09-12T10:37:16;12.98;;;9.73;;
64816;SDS011;69411;45.656;11.740;2023-09-12T10:39:54;12.13;;;9.60;;
64816;SDS011;69411;45.656;11.740;2023-09-12T10:42:23;11.65;;;8.48;;
64816;SDS011;69411;45.656;11.740;2023-09-12T10:44:51;9.77;;;8.05;;
64816;SDS011;69411;45.656;11.740;2023-09-12T10:47:22;15.05;;;8.93;;
64816;SDS011;69411;45.656;11.740;2023-09-12T10:49:49;12.63;;;8.40;;
64816;SDS011;69411;45.656;11.740;2023-09-12T10:52:25;14.63;;;8.60;;
64816;SDS011;69411;45.656;11.740;2023-09-12T10:54:51;11.05;;;8.60;;
64816;SDS011;69411;45.656;11.740;2023-09-12T10:57:21;10.68;;;7.75;;
64816;SDS011;69411;45.656;11.740;2023-09-12T11:02:28;12.02;;;7.90;;
64816;SDS011;69411;45.656;11.740;2023-09-12T11:05:00;9.25;;;7.72;;
64816;SDS011;69411;45.656;11.740;2023-09-12T11:10:23;10.32;;;7.70;;
64816;SDS011;69411;45.656;11.740;2023-09-12T11:12:51;11.02;;;8.50;;
64816;SDS011;69411;45.656;11.740;2023-09-12T11:15:20;10.15;;;8.25;;
64816;SDS011;69411;45.656;11.740;2023-09-12T11:17:47;15.85;;;9.18;;
64816;SDS011;69411;45.656;11.740;2023-09-12T11:21:07;14.25;;;9.10;;
64816;SDS011;69411;45.656;11.740;2023-09-12T11:23:15;10.82;;;8.63;;
64816;SDS011;69411;45.656;11.740;2023-09-12T11:25:40;13.25;;;9.20;;
64816;SDS011;69411;45.656;11.740;2023-09-12T11:28:07;12.68;;;10.25;;
64816;SDS011;69411;45.656;11.740;2023-09-12T11:30:34;10.75;;;8.50;;
64816;SDS011;69411;45.656;11.740;2023-09-12T11:33:03;11.85;;;9.63;;
64816;SDS011;69411;45.656;11.740;2023-09-12T11:35:36;27.13;;;21.90;;
64816;SDS011;69411;45.656;11.740;2023-09-12T11:38:09;20.92;;;18.40;;
64816;SDS011;69411;45.656;11.740;2023-09-12T11:43:01;15.80;;;13.55;;
64816;SDS011;69411;45.656;11.740;2023-09-12T11:45:31;16.33;;;12.43;;
64816;SDS011;69411;45.656;11.740;2023-09-12T11:47:58;14.55;;;11.88;;
64816;SDS011;69411;45.656;11.740;2023-09-12T11:50:30;13.02;;;11.30;;
64816;SDS011;69411;45.656;11.740;2023-09-12T11:53:05;13.68;;;11.60;;
64816;SDS011;69411;45.656;11.740;2023-09-12T11:55:53;14.10;;;10.93;;
64816;SDS011;69411;45.656;11.740;2023-09-12T11:58:25;11.67;;;10.03;;
64816;SDS011;69411;45.656;11.740;2023-09-12T12:01:01;16.58;;;9.95;;
64816;SDS011;69411;45.656;11.740;2023-09-12T12:03:29;11.60;;;9.63;;
64816;SDS011;69411;45.656;11.740;2023-09-12T12:05:55;15.70;;;11.00;;
64816;SDS011;69411;45.656;11.740;2023-09-12T12:08:21;14.52;;;10.43;;
64816;SDS011;69411;45.656;11.740;2023-09-12T12:10:51;13.02;;;10.35;;
64816;SDS011;69411;45.656;11.740;2023-09-12T12:13:18;12.50;;;10.52;;
64816;SDS011;69411;45.656;11.740;2023-09-12T12:15:50;14.07;;;9.95;;
64816;SDS011;69411;45.656;11.740;2023-09-12T12:18:16;14.90;;;10.18;;
64816;SDS011;69411;45.656;11.740;2023-09-12T12:20:42;13.63;;;10.00;;
64816;SDS011;69411;45.656;11.740;2023-09-12T12:23:08;13.07;;;10.57;;
64816;SDS011;69411;45.656;11.740;2023-09-12T12:25:35;14.90;;;11.55;;
64816;SDS011;69411;45.656;11.740;2023-09-12T12:28:13;14.00;;;11.50;;
64816;SDS011;69411;45.656;11.740;2023-09-12T12:30:39;15.00;;;10.63;;
64816;SDS011;69411;45.656;11.740;2023-09-12T12:33:09;15.55;;;11.90;;
64816;SDS011;69411;45.656;11.740;2023-09-12T12:35:35;15.00;;;12.55;;
64816;SDS011;69411;45.656;11.740;2023-09-12T12:38:02;17.58;;;11.32;;
64816;SDS011;69411;45.656;11.740;2023-09-12T12:40:29;12.82;;;10.75;;
64816;SDS011;69411;45.656;11.740;2023-09-12T12:43:05;14.15;;;11.60;;
64816;SDS011;69411;45.656;11.740;2023-09-12T12:45:51;14.68;;;11.63;;
64816;SDS011;69411;45.656;11.740;2023-09-12T12:48:33;12.50;;;10.30;;
64816;SDS011;69411;45.656;11.740;2023-09-12T12:51:14;14.73;;;10.13;;
64816;SDS011;69411;45.656;11.740;2023-09-12T12:56:23;14.95;;;11.35;;
64816;SDS011;69411;45.656;11.740;2023-09-12T12:58:56;13.52;;;11.35;;
64816;SDS011;69411;45.656;11.740;2023-09-12T13:01:25;14.85;;;11.52;;
64816;SDS011;69411;45.656;11.740;2023-09-12T13:03:52;12.70;;;11.32;;
64816;SDS011;69411;45.656;11.740;2023-09-12T13:06:19;16.48;;;12.05;;
64816;SDS011;69411;45.656;11.740;2023-09-12T13:08:46;14.57;;;12.70;;
64816;SDS011;69411;45.656;11.740;2023-09-12T13:11:14;12.60;;;11.30;;
64816;SDS011;69411;45.656;11.740;2023-09-12T13:13:41;12.43;;;10.65;;
64816;SDS011;69411;45.656;11.740;2023-09-12T13:16:08;16.55;;;13.27;;
64816;SDS011;69411;45.656;11.740;2023-09-12T13:18:36;14.70;;;12.30;;
64816;SDS011;69411;45.656;11.740;2023-09-12T13:21:04;14.23;;;11.23;;
64816;SDS011;69411;45.656;11.740;2023-09-12T13:23:30;13.05;;;10.90;;
64816;SDS011;69411;45.656;11.740;2023-09-12T13:25:59;12.52;;;10.75;;
64816;SDS011;69411;45.656;11.740;2023-09-12T13:28:25;13.63;;;10.77;;
64816;SDS011;69411;45.656;11.740;2023-09-12T13:30:53;15.35;;;11.60;;
64816;SDS011;69411;45.656;11.740;2023-09-12T13:33:20;16.08;;;13.32;;
64816;SDS011;69411;45.656;11.740;2023-09-12T13:35:47;12.75;;;11.43;;
64816;SDS011;69411;45.656;11.740;2023-09-12T13:38:15;17.40;;;12.48;;
64816;SDS011;69411;45.656;11.740;2023-09-12T13:40:47;15.55;;;12.43;;
64816;SDS011;69411;45.656;11.740;2023-09-12T13:43:14;17.85;;;14.18;;
64816;SDS011;69411;45.656;11.740;2023-09-12T13:45:40;15.45;;;11.85;;
64816;SDS011;69411;45.656;11.740;2023-09-12T13:48:06;15.02;;;12.95;;
64816;SDS011;69411;45.656;11.740;2023-09-12T13:50:33;13.05;;;11.07;;
64816;SDS011;69411;45.656;11.740;2023-09-12T13:53:00;15.77;;;11.10;;
64816;SDS011;69411;45.656;11.740;2023-09-12T13:55:34;15.18;;;11.30;;
64816;SDS011;69411;45.656;11.740;2023-09-12T13:58:02;19.23;;;14.95;;
64816;SDS011;69411;45.656;11.740;2023-09-12T14:00:29;15.18;;;11.52;;
64816;SDS011;69411;45.656;11.740;2023-09-12T14:02:55;16.08;;;11.75;;
64816;SDS011;69411;45.656;11.740;2023-09-12T14:05:21;17.75;;;13.18;;
64816;SDS011;69411;45.656;11.740;2023-09-12T14:07:48;14.95;;;12.13;;
64816;SDS011;69411;45.656;11.740;2023-09-12T14:10:14;13.80;;;12.35;;
64816;SDS011;69411;45.656;11.740;2023-09-12T14:12:40;17.35;;;10.60;;
64816;SDS011;69411;45.656;11.740;2023-09-12T14:15:06;15.77;;;11.60;;
64816;SDS011;69411;45.656;11.740;2023-09-12T14:17:34;13.05;;;11.15;;
64816;SDS011;69411;45.656;11.740;2023-09-12T14:20:00;14.35;;;11.43;;
64816;SDS011;69411;45.656;11.740;2023-09-12T14:22:25;19.98;;;11.55;;
64816;SDS011;69411;45.656;11.740;2023-09-12T14:24:52;13.07;;;11.48;;
64816;SDS011;69411;45.656;11.740;2023-09-12T14:27:18;16.73;;;12.63;;
64816;SDS011;69411;45.656;11.740;2023-09-12T14:29:45;16.17;;;12.57;;
64816;SDS011;69411;45.656;11.740;2023-09-12T14:32:14;14.48;;;12.32;;
64816;SDS011;69411;45.656;11.740;2023-09-12T14:34:40;13.55;;;11.23;;
64816;SDS011;69411;45.656;11.740;2023-09-12T14:37:06;17.70;;;12.95;;
64816;SDS011;69411;45.656;11.740;2023-09-12T14:39:33;15.85;;;12.35;;
64816;SDS011;69411;45.656;11.740;2023-09-12T14:41:59;13.20;;;11.15;;